Time;durP1;ratioP1;P1;durP2;ratioP2;P2;SDS_P1;SDS_P2;PMS_P1;PMS_P2;Temp;Humidity;BMP_temperature;BMP_pressure;BME280_temperature;BME280_humidity;BME280_pressure;Samples;Min_cycle;Max_cycle;Signal;HPM_P1;HPM_P2
2022/08/29 00:00:17;;;;;;;12.03;6.30;;;;;;;19.89;70.10;101513.31;4926823;29;20605;-69
2022/08/29 00:02:42;;;;;;;14.10;6.83;;;;;;;20.03;69.83;101509.53;4943618;29;20178;-69
2022/08/29 00:05:08;;;;;;;8.73;6.20;;;;;;;19.27;71.84;101508.97;4943259;29;20793;-71
2022/08/29 00:07:34;;;;;;;10.03;6.13;;;;;;;19.47;72.11;101513.94;4943080;29;20480;-70
2022/08/29 00:09:59;;;;;;;16.63;6.70;;;;;;;19.30;72.85;101509.78;4943802;29;20425;-72
2022/08/29 00:12:24;;;;;;;11.47;6.37;;;;;;;19.78;71.18;101511.72;4943216;29;20186;-72
2022/08/29 00:14:50;;;;;;;11.30;6.27;;;;;;;19.74;71.24;101510.03;4942961;29;20217;-72
2022/08/29 00:17:15;;;;;;;18.40;6.70;;;;;;;19.91;70.79;101511.53;4943725;29;20525;-73
2022/08/29 00:19:40;;;;;;;15.40;6.93;;;;;;;19.95;71.03;101507.94;4943261;29;20178;-73
2022/08/29 00:22:06;;;;;;;14.07;6.90;;;;;;;19.82;71.03;101508.16;4943230;29;20209;-72
2022/08/29 00:24:31;;;;;;;12.20;6.20;;;;;;;20.14;70.28;101508.50;4942928;29;20229;-73
2022/08/29 00:26:59;;;;;;;14.70;7.37;;;;;;;20.20;70.19;101505.72;4943116;29;20539;-73
2022/08/29 00:29:25;;;;;;;11.23;7.20;;;;;;;20.01;70.44;101519.28;4943086;29;20497;-72
2022/08/29 00:31:50;;;;;;;11.20;6.70;;;;;;;20.06;70.40;101511.25;4942961;29;20870;-72
2022/08/29 00:34:16;;;;;;;11.10;6.70;;;;;;;19.75;71.33;101517.03;4942624;29;20483;-73
2022/08/29 00:36:41;;;;;;;16.17;6.70;;;;;;;20.27;70.18;101522.34;4943194;29;20471;-72
2022/08/29 00:39:07;;;;;;;18.77;7.80;;;;;;;19.98;70.64;101518.47;4942648;29;20540;-72
2022/08/29 00:41:32;;;;;;;14.97;6.77;;;;;;;20.07;70.39;101514.81;4942806;29;20200;-73
2022/08/29 00:43:58;;;;;;;14.20;6.80;;;;;;;20.38;69.17;101512.47;4943081;29;20562;-73
2022/08/29 00:46:37;;;;;;;10.27;6.60;;;;;;;20.33;69.66;101519.63;4942786;29;20216;-73
2022/08/29 00:49:06;;;;;;;11.27;6.37;;;;;;;20.45;69.11;101516.72;4942725;29;20268;-73
2022/08/29 00:51:32;;;;;;;19.03;6.80;;;;;;;20.31;69.56;101516.09;4925968;29;20461;-75
2022/08/29 00:54:00;;;;;;;9.80;6.40;;;;;;;20.15;69.58;101516.41;4925964;29;20516;-73
2022/08/29 00:56:27;;;;;;;13.43;6.70;;;;;;;19.76;71.23;101528.50;4926463;29;20177;-72
2022/08/29 00:59:02;;;;;;;13.83;6.83;;;;;;;19.61;72.24;101532.28;4925894;29;20815;-71
2022/08/29 01:01:27;;;;;;;13.47;6.57;;;;;;;19.79;71.58;101531.97;4925833;29;20806;-71
2022/08/29 01:03:53;;;;;;;13.30;6.60;;;;;;;20.32;69.90;101532.00;4942102;29;20421;-71
2022/08/29 01:06:19;;;;;;;12.57;6.67;;;;;;;20.19;69.87;101527.81;4942185;29;20544;-71
2022/08/29 01:08:45;;;;;;;18.80;9.83;;;;;;;20.37;69.38;101529.25;4926157;29;20224;-72
2022/08/29 01:13:57;;;;;;;12.03;6.67;;;;;;;20.28;69.64;101526.75;4942054;29;20224;-74
2022/08/29 01:16:24;;;;;;;11.83;7.13;;;;;;;20.51;69.06;101527.22;4942017;29;20508;-73
2022/08/29 01:18:52;;;;;;;11.93;6.50;;;;;;;20.32;69.03;101532.00;4942019;29;20173;-73
2022/08/29 01:21:33;;;;;;;11.77;7.77;;;;;;;20.32;70.24;101528.44;4942526;29;20418;-73
2022/08/29 01:24:18;;;;;;;9.63;7.00;;;;;;;20.55;68.93;101527.16;4925292;29;20739;-72
2022/08/29 01:26:45;;;;;;;11.70;7.57;;;;;;;20.53;68.93;101522.75;4942042;29;20457;-73
2022/08/29 01:29:11;;;;;;;11.60;6.27;;;;;;;20.48;68.74;101529.91;4925404;29;20414;-72
2022/08/29 01:31:44;;;;;;;12.60;6.97;;;;;;;20.13;70.21;101523.50;4941888;29;20425;-72
2022/08/29 01:34:10;;;;;;;9.43;6.07;;;;;;;20.21;69.99;101520.69;4925069;29;20532;-72
2022/08/29 01:36:49;;;;;;;12.97;6.80;;;;;;;20.36;69.23;101524.84;4941832;29;20432;-72
2022/08/29 01:39:15;;;;;;;13.30;6.20;;;;;;;20.31;69.64;101524.94;4941806;29;20429;-72
2022/08/29 01:41:41;;;;;;;11.10;6.53;;;;;;;20.28;69.35;101532.94;4925175;29;20426;-73
2022/08/29 01:44:18;;;;;;;11.30;6.53;;;;;;;20.22;69.36;101535.69;4941778;29;20504;-72
2022/08/29 01:46:46;;;;;;;16.13;6.60;;;;;;;20.22;69.91;101537.47;4941667;29;20256;-72
2022/08/29 01:49:12;;;;;;;9.67;6.50;;;;;;;20.01;70.92;101534.28;4941427;29;20417;-71
2022/08/29 01:51:38;;;;;;;20.30;7.30;;;;;;;20.24;70.02;101540.97;4941095;29;20448;-70
2022/08/29 01:54:06;;;;;;;14.10;6.40;;;;;;;20.33;70.25;101538.16;4941070;29;20237;-71
2022/08/29 01:56:33;;;;;;;12.57;6.57;;;;;;;20.53;69.39;101538.63;4941920;29;20381;-71
2022/08/29 01:58:59;;;;;;;11.67;6.27;;;;;;;20.31;69.79;101534.63;4941215;29;20449;-71
2022/08/29 02:01:27;;;;;;;16.10;7.30;;;;;;;20.38;69.89;101540.69;4941545;29;20807;-72
2022/08/29 02:03:52;;;;;;;14.03;7.93;;;;;;;20.58;69.63;101535.91;4925055;29;20384;-72
2022/08/29 02:06:18;;;;;;;12.47;7.20;;;;;;;20.39;70.53;101538.06;4941067;29;20417;-72
2022/08/29 02:08:44;;;;;;;13.43;7.30;;;;;;;20.37;70.17;101537.19;4941109;29;20174;-72
2022/08/29 02:11:10;;;;;;;12.87;8.10;;;;;;;20.11;71.40;101535.88;4941687;29;20173;-72
2022/08/29 02:13:45;;;;;;;12.03;7.30;;;;;;;19.90;72.75;101536.25;4940990;29;20588;-72
2022/08/29 02:16:11;;;;;;;14.77;8.17;;;;;;;20.48;69.93;101535.19;4924439;29;20400;-72
2022/08/29 02:18:37;;;;;;;16.53;8.60;;;;;;;20.13;71.51;101531.44;4941129;29;20636;-73
2022/08/29 02:21:03;;;;;;;12.97;7.47;;;;;;;20.67;69.38;101537.50;4941122;29;20406;-73
2022/08/29 02:23:29;;;;;;;17.37;8.70;;;;;;;20.44;70.58;101532.66;4940785;29;20178;-73
2022/08/29 02:25:55;;;;;;;12.80;8.47;;;;;;;20.38;70.33;101527.47;4924358;29;20481;-73
2022/08/29 02:28:21;;;;;;;14.50;8.77;;;;;;;20.34;70.91;101529.31;4940853;29;20425;-73
2022/08/29 02:30:48;;;;;;;11.63;8.53;;;;;;;20.19;71.89;101527.81;4924775;29;20180;-73
2022/08/29 02:33:15;;;;;;;12.67;8.07;;;;;;;20.48;70.71;101529.91;4940547;29;20209;-73
2022/08/29 02:35:41;;;;;;;13.23;8.60;;;;;;;20.43;71.14;101526.50;4940801;29;20421;-72
2022/08/29 02:38:07;;;;;;;17.13;9.70;;;;;;;20.51;70.81;101534.28;4941246;29;20783;-71
2022/08/29 02:40:32;;;;;;;17.80;8.60;;;;;;;20.42;71.39;101530.03;4924161;29;20432;-71
2022/08/29 02:42:58;;;;;;;14.50;8.00;;;;;;;20.41;70.59;101522.97;4940597;29;20174;-72
2022/08/29 02:45:24;;;;;;;10.77;7.87;;;;;;;20.57;70.87;101528.88;4940955;29;20182;-72
2022/08/29 02:47:50;;;;;;;14.60;9.03;;;;;;;20.60;70.43;101530.59;4940694;29;20439;-72
2022/08/29 02:50:15;;;;;;;12.30;8.50;;;;;;;20.06;72.81;101524.50;4940515;29;20178;-72
2022/08/29 02:52:42;;;;;;;10.13;8.43;;;;;;;20.60;70.19;101528.81;4940953;29;20430;-72
2022/08/29 02:55:10;;;;;;;13.60;8.80;;;;;;;20.47;71.11;101522.00;4924184;29;20190;-71
2022/08/29 02:57:36;;;;;;;13.07;8.77;;;;;;;20.02;72.69;101528.09;4940750;29;20451;-71
2022/08/29 03:00:06;;;;;;;12.90;8.57;;;;;;;20.51;71.48;101524.56;4941129;29;20384;-72
2022/08/29 03:02:31;;;;;;;13.67;8.50;;;;;;;20.34;71.66;101524.88;4923997;29;20268;-72
2022/08/29 03:04:58;;;;;;;18.30;9.30;;;;;;;20.82;69.80;101524.00;4943933;29;20449;-72
2022/08/29 03:07:24;;;;;;;16.53;10.43;;;;;;;20.89;70.25;101522.09;4945006;29;20169;-72
2022/08/29 03:09:49;;;;;;;17.90;10.60;;;;;;;20.73;70.59;101531.22;4944370;29;20435;-73
2022/08/29 03:12:14;;;;;;;15.93;10.37;;;;;;;20.44;71.14;101533.50;4944431;29;20189;-72
2022/08/29 03:14:40;;;;;;;15.70;9.60;;;;;;;20.43;70.91;101530.91;4944533;29;20280;-73
2022/08/29 03:17:06;;;;;;;9.77;8.67;;;;;;;20.76;69.90;101529.41;4944255;29;20607;-72
2022/08/29 03:19:31;;;;;;;13.73;9.20;;;;;;;20.28;71.61;101526.75;4944148;29;20177;-71
2022/08/29 03:21:57;;;;;;;13.73;10.47;;;;;;;20.68;71.16;101526.00;4944792;29;20256;-71
2022/08/29 03:24:22;;;;;;;17.20;9.83;;;;;;;20.55;70.52;101519.19;4943773;29;20237;-71
2022/08/29 03:26:47;;;;;;;16.00;9.53;;;;;;;20.41;71.12;101520.34;4943950;29;20182;-72
2022/08/29 03:29:13;;;;;;;15.00;9.90;;;;;;;20.26;71.74;101528.59;4944809;29;20178;-72
2022/08/29 03:31:38;;;;;;;13.10;9.50;;;;;;;20.13;72.64;101519.97;4944095;29;20265;-72
2022/08/29 03:34:03;;;;;;;13.80;10.20;;;;;;;20.18;72.15;101524.28;4943635;29;20213;-72
2022/08/29 03:36:30;;;;;;;14.83;10.47;;;;;;;20.03;72.82;101517.47;4944858;29;20213;-73
2022/08/29 03:38:56;;;;;;;13.57;10.00;;;;;;;19.75;74.39;101522.31;4943899;29;20553;-72
2022/08/29 03:41:24;;;;;;;17.63;10.90;;;;;;;20.29;72.29;101521.44;4927315;29;20516;-72
2022/08/29 03:43:50;;;;;;;16.07;10.37;;;;;;;20.05;72.64;101517.44;4944139;29;20236;-72
2022/08/29 03:46:16;;;;;;;12.57;10.80;;;;;;;20.21;72.20;101511.91;4943895;29;20819;-72
2022/08/29 03:48:41;;;;;;;12.80;10.50;;;;;;;19.70;74.08;101521.56;4944132;29;20421;-72
2022/08/29 03:51:07;;;;;;;12.07;9.87;;;;;;;19.94;72.89;101516.78;4944581;29;20257;-73
2022/08/29 03:53:33;;;;;;;13.93;11.20;;;;;;;20.03;73.31;101519.25;4944697;29;20213;-72
2022/08/29 03:55:58;;;;;;;15.73;10.60;;;;;;;19.92;73.29;101524.75;4944731;29;20508;-73
2022/08/29 03:58:23;;;;;;;16.00;11.53;;;;;;;19.40;74.99;101520.22;4944643;29;20544;-73
2022/08/29 04:00:49;;;;;;;16.83;11.10;;;;;;;19.65;74.93;101520.75;4927642;29;20196;-73
2022/08/29 04:03:14;;;;;;;20.57;11.77;;;;;;;19.71;74.56;101520.63;4943490;29;20253;-73
2022/08/29 04:05:40;;;;;;;17.37;13.13;;;;;;;19.43;75.33;101529.00;4944114;29;20174;-72
2022/08/29 04:08:07;;;;;;;16.20;10.53;;;;;;;19.77;74.44;101530.22;4943304;29;20177;-73
2022/08/29 04:10:36;;;;;;;17.90;11.00;;;;;;;19.74;74.02;101525.00;4943430;29;20177;-72
2022/08/29 04:13:02;;;;;;;16.53;11.20;;;;;;;19.98;73.46;101529.91;4943453;29;20588;-72
2022/08/29 04:15:29;;;;;;;16.93;11.50;;;;;;;20.09;72.82;101524.44;4926241;29;20421;-73
2022/08/29 04:17:58;;;;;;;12.43;10.67;;;;;;;19.95;72.98;101534.41;4943248;29;20722;-72
2022/08/29 04:20:25;;;;;;;15.53;11.90;;;;;;;19.92;73.48;101545.06;4943435;29;20418;-72
2022/08/29 04:22:52;;;;;;;13.73;11.53;;;;;;;19.84;73.57;101542.53;4942908;29;20469;-73
2022/08/29 04:25:18;;;;;;;13.70;11.30;;;;;;;19.80;73.56;101546.97;4942892;29;20489;-73
2022/08/29 04:27:43;;;;;;;18.53;12.33;;;;;;;20.02;73.89;101551.91;4943372;29;20442;-72
2022/08/29 04:30:13;;;;;;;17.40;12.80;;;;;;;19.97;73.97;101554.66;4943050;29;20253;-73
2022/08/29 04:32:38;;;;;;;17.27;12.77;;;;;;;19.95;74.20;101563.53;4942701;29;20491;-72
2022/08/29 04:35:05;;;;;;;17.50;12.90;;;;;;;19.68;75.15;101557.72;4943057;29;20561;-72
2022/08/29 04:37:30;;;;;;;15.70;12.73;;;;;;;19.97;74.18;101565.25;4926360;29;20169;-72
2022/08/29 04:39:56;;;;;;;15.93;13.40;;;;;;;19.84;74.20;101564.56;4942798;29;20403;-73
2022/08/29 04:42:21;;;;;;;20.03;14.07;;;;;;;19.69;75.31;101564.78;4943233;29;20181;-72
2022/08/29 04:44:47;;;;;;;15.67;13.97;;;;;;;19.86;74.51;101575.09;4942444;29;20181;-73
2022/08/29 04:47:13;;;;;;;17.70;14.47;;;;;;;19.70;74.38;101571.81;4942659;29;20178;-72
2022/08/29 04:49:41;;;;;;;15.43;13.80;;;;;;;19.53;74.81;101570.25;4943055;29;20165;-72
2022/08/29 04:52:06;;;;;;;18.93;13.40;;;;;;;19.42;75.09;101574.84;4942706;29;20388;-72
2022/08/29 04:54:32;;;;;;;17.70;13.63;;;;;;;18.99;76.86;101578.03;4942308;29;20476;-72
2022/08/29 04:57:02;;;;;;;14.97;13.60;;;;;;;19.28;76.07;101590.00;4943269;29;20220;-73
2022/08/29 04:59:27;;;;;;;17.80;14.00;;;;;;;19.22;75.68;101580.41;4942658;29;20178;-74
2022/08/29 05:01:53;;;;;;;15.87;14.40;;;;;;;19.40;74.97;101584.56;4942470;29;20667;-73
2022/08/29 05:04:18;;;;;;;16.50;14.30;;;;;;;19.05;75.99;101591.19;4942577;29;20208;-74
2022/08/29 05:06:43;;;;;;;15.93;13.53;;;;;;;19.23;75.12;101597.13;4942380;29;20184;-73
2022/08/29 05:09:09;;;;;;;14.10;11.77;;;;;;;19.22;75.13;101595.41;4942447;29;20185;-73
2022/08/29 05:11:34;;;;;;;12.60;11.43;;;;;;;19.27;74.06;101599.72;4942759;29;20181;-72
2022/08/29 05:14:00;;;;;;;12.30;11.20;;;;;;;19.28;73.39;101590.91;4942020;29;20201;-73
2022/08/29 05:16:26;;;;;;;11.00;10.03;;;;;;;19.45;72.53;101588.03;4942101;29;20268;-71
2022/08/29 05:18:51;;;;;;;11.33;10.23;;;;;;;19.38;72.75;101591.66;4942651;29;20200;-71
2022/08/29 05:21:30;;;;;;;10.77;9.67;;;;;;;19.81;70.71;101583.13;4942045;29;20516;-70
2022/08/29 05:23:56;;;;;;;10.90;8.83;;;;;;;19.66;70.71;101581.56;4941601;29;20229;-72
2022/08/29 05:26:22;;;;;;;10.43;8.90;;;;;;;19.69;70.51;101585.94;4941098;29;20440;-72
2022/08/29 05:28:48;;;;;;;9.90;9.00;;;;;;;19.89;69.50;101593.59;4925463;29;20196;-71
2022/08/29 05:31:14;;;;;;;9.50;8.70;;;;;;;19.87;68.98;101597.16;4942248;29;20545;-71
2022/08/29 05:33:40;;;;;;;9.73;8.73;;;;;;;20.05;68.76;101603.94;4941322;29;20508;-73
2022/08/29 05:36:06;;;;;;;11.10;10.00;;;;;;;20.26;67.72;101602.72;4924931;29;20429;-74
2022/08/29 05:38:31;;;;;;;12.23;11.03;;;;;;;20.51;67.79;101604.03;4942143;29;20406;-73
2022/08/29 05:40:56;;;;;;;10.33;9.33;;;;;;;20.39;67.60;101606.91;4941663;29;20201;-70
2022/08/29 05:43:22;;;;;;;8.53;7.73;;;;;;;20.38;67.40;101610.44;4941435;29;20173;-73
2022/08/29 05:45:47;;;;;;;9.57;8.50;;;;;;;20.01;68.27;101613.69;4942083;29;20469;-70
2022/08/29 05:48:13;;;;;;;14.33;9.07;;;;;;;20.29;67.63;101619.41;4941203;29;20244;-71
2022/08/29 05:50:40;;;;;;;8.97;7.17;;;;;;;21.23;64.41;101608.88;4941258;29;20173;-74
2022/08/29 05:53:06;;;;;;;11.30;10.03;;;;;;;21.63;61.95;101607.16;4941869;29;20449;-75
2022/08/29 05:55:32;;;;;;;11.03;7.50;;;;;;;21.60;62.16;101610.75;4941309;29;20532;-70
2022/08/29 05:57:57;;;;;;;11.87;8.70;;;;;;;20.91;63.78;101609.53;4941309;29;20422;-67
2022/08/29 06:00:22;;;;;;;7.23;5.90;;;;;;;21.58;61.87;101609.03;4941671;29;20297;-69
2022/08/29 06:02:48;;;;;;;12.03;10.63;;;;;;;21.12;63.79;101610.84;4941036;29;20282;-72
2022/08/29 06:05:13;;;;;;;6.57;5.97;;;;;;;21.59;61.15;101614.28;4941101;29;20178;-69
2022/08/29 06:07:38;;;;;;;9.57;8.57;;;;;;;22.57;57.92;101611.94;4941410;29;20184;-70
2022/08/29 06:10:07;;;;;;;11.10;8.03;;;;;;;23.06;56.82;101613.25;4941090;29;20559;-70
2022/08/29 06:12:32;;;;;;;7.00;6.30;;;;;;;24.48;52.17;101607.97;4941128;29;20486;-70
2022/08/29 06:14:58;;;;;;;6.07;5.57;;;;;;;25.08;50.51;101608.50;4941387;29;20453;-69
2022/08/29 06:17:23;;;;;;;9.87;5.53;;;;;;;26.04;47.65;101612.81;4940945;29;20516;-69
2022/08/29 06:19:50;;;;;;;4.70;4.30;;;;;;;25.31;48.79;101609.44;4941035;29;20177;-70
2022/08/29 06:22:18;;;;;;;4.70;4.30;;;;;;;24.49;51.06;101613.25;4941430;29;20162;-69
2022/08/29 06:24:44;;;;;;;4.67;4.27;;;;;;;23.34;54.13;101625.78;4924426;29;20472;-69
2022/08/29 06:27:11;;;;;;;7.83;6.00;;;;;;;22.58;56.31;101627.00;4941056;29;20428;-72
2022/08/29 06:29:36;;;;;;;5.77;5.20;;;;;;;22.39;57.43;101629.25;4924602;29;20508;-71
2022/08/29 06:32:02;;;;;;;8.20;5.03;;;;;;;22.41;57.59;101632.72;4940805;29;20632;-79
2022/08/29 06:34:27;;;;;;;6.17;5.50;;;;;;;22.43;56.95;101630.91;4924010;29;20213;-71
2022/08/29 06:36:52;;;;;;;6.13;4.60;;;;;;;22.59;57.34;101639.38;4941068;29;20184;-73
2022/08/29 06:39:19;;;;;;;6.43;5.00;;;;;;;22.83;56.08;101637.84;4940728;29;20224;-72
2022/08/29 06:41:44;;;;;;;5.47;4.87;;;;;;;24.04;52.59;101627.19;4940782;29;20540;-71
2022/08/29 06:44:09;;;;;;;4.60;4.20;;;;;;;25.17;50.31;101626.81;4940759;29;20428;-72
2022/08/29 06:46:38;;;;;;;4.10;3.67;;;;;;;27.35;44.50;101614.22;4940580;29;20169;-73
2022/08/29 06:49:06;;;;;;;4.20;3.90;;;;;;;29.42;39.88;101606.38;4939864;29;20229;-70
2022/08/29 06:51:33;;;;;;;5.23;3.67;;;;;;;29.12;40.30;101607.13;4941043;29;20414;-73
2022/08/29 06:53:59;;;;;;;4.37;3.90;;;;;;;29.89;38.95;101612.69;4923934;29;20497;-72
2022/08/29 06:56:25;;;;;;;7.80;3.90;;;;;;;28.72;41.10;101614.63;4939040;29;20433;-70
2022/08/29 06:58:50;;;;;;;4.47;3.70;;;;;;;28.41;41.69;101616.22;4940577;29;20425;-71
2022/08/29 07:01:17;;;;;;;4.07;3.60;;;;;;;26.35;45.16;101635.59;4940342;29;20185;-73
2022/08/29 07:03:43;;;;;;;4.13;3.73;;;;;;;25.99;46.83;101629.00;4940139;29;20217;-69
2022/08/29 07:06:09;;;;;;;6.47;4.40;;;;;;;24.76;49.41;101637.22;4940911;29;20413;-71
2022/08/29 07:08:35;;;;;;;5.13;4.30;;;;;;;24.27;51.15;101636.22;4940319;29;20335;-72
2022/08/29 07:11:01;;;;;;;4.60;4.00;;;;;;;23.32;53.44;101638.25;4923664;29;20170;-68
2022/08/29 07:13:26;;;;;;;9.43;4.50;;;;;;;24.07;52.17;101635.06;4939582;29;20473;-72
2022/08/29 07:15:52;;;;;;;11.63;6.33;;;;;;;23.80;51.71;101634.13;4940277;29;20216;-74
2022/08/29 07:18:17;;;;;;;5.27;4.70;;;;;;;25.19;48.10;101633.00;4940341;29;20253;-70
2022/08/29 07:20:43;;;;;;;4.80;4.20;;;;;;;25.81;47.04;101635.09;4940687;29;20165;-69
2022/08/29 07:23:08;;;;;;;5.80;4.80;;;;;;;27.49;42.93;101630.50;4939973;29;20181;-69
2022/08/29 07:25:34;;;;;;;5.23;4.73;;;;;;;27.95;41.76;101631.91;4939967;29;20221;-70
2022/08/29 07:27:59;;;;;;;5.10;4.20;;;;;;;27.13;43.62;101633.97;4940320;29;20182;-68
2022/08/29 07:30:26;;;;;;;5.33;4.57;;;;;;;28.00;41.06;101624.53;4940131;29;20212;-68
2022/08/29 07:32:51;;;;;;;4.10;3.67;;;;;;;29.77;38.52;101630.38;4923216;29;20189;-67
2022/08/29 07:35:17;;;;;;;7.47;3.67;;;;;;;28.76;39.19;101637.66;4940416;29;20414;-68
2022/08/29 07:37:43;;;;;;;3.50;3.20;;;;;;;27.15;42.73;101641.91;4939873;29;20201;-68
2022/08/29 07:40:11;;;;;;;6.03;3.40;;;;;;;27.73;41.57;101636.50;4923141;29;20456;-68
2022/08/29 07:42:37;;;;;;;4.80;3.37;;;;;;;28.40;40.24;101631.44;4923669;29;20444;-68
2022/08/29 07:45:07;;;;;;;4.00;3.43;;;;;;;27.46;42.31;101636.03;4939903;29;20421;-71
2022/08/29 07:47:33;;;;;;;3.20;2.87;;;;;;;27.88;41.11;101636.72;4939882;29;20177;-71
2022/08/29 07:50:00;;;;;;;4.03;3.23;;;;;;;28.83;40.12;101639.06;4942072;29;20409;-72
2022/08/29 07:52:29;;;;;;;4.03;3.07;;;;;;;28.71;40.18;101642.41;4943427;29;20460;-74
2022/08/29 07:54:54;;;;;;;3.77;3.03;;;;;;;28.99;39.03;101643.63;4943093;29;20556;-73
2022/08/29 07:57:20;;;;;;;3.80;3.03;;;;;;;28.48;39.53;101640.91;4943672;29;20437;-71
2022/08/29 07:59:46;;;;;;;4.27;2.90;;;;;;;26.26;44.25;101652.84;4943277;29;20170;-72
2022/08/29 08:02:11;;;;;;;3.43;2.80;;;;;;;25.89;44.87;101662.38;4943262;29;20198;-77
2022/08/29 08:04:37;;;;;;;3.97;2.83;;;;;;;25.12;46.92;101662.63;4943559;29;20233;-73
2022/08/29 08:07:02;;;;;;;7.13;4.90;;;;;;;24.98;48.10;101661.31;4943190;29;20552;-70
2022/08/29 08:09:27;;;;;;;4.47;4.07;;;;;;;25.38;46.99;101661.66;4943038;29;20174;-69
2022/08/29 08:11:53;;;;;;;4.00;3.03;;;;;;;25.30;46.79;101672.63;4943209;29;20228;-69
2022/08/29 08:14:18;;;;;;;5.67;3.10;;;;;;;25.40;46.45;101670.50;4942777;29;20478;-69
2022/08/29 08:16:45;;;;;;;4.87;3.60;;;;;;;25.59;45.92;101662.66;4943207;29;20178;-70
2022/08/29 08:19:14;;;;;;;5.60;2.90;;;;;;;26.01;45.10;101674.38;4926615;29;20286;-71
2022/08/29 08:21:42;;;;;;;4.43;3.20;;;;;;;25.22;46.16;101669.34;4942925;29;20700;-70
2022/08/29 08:24:08;;;;;;;5.00;3.80;;;;;;;25.32;46.88;101667.22;4942457;29;20465;-70
2022/08/29 08:26:33;;;;;;;5.80;4.00;;;;;;;26.20;44.66;101661.16;4943139;29;20506;-70
2022/08/29 08:28:59;;;;;;;5.00;3.80;;;;;;;25.63;45.44;101663.41;4942740;29;20831;-71
2022/08/29 08:31:24;;;;;;;8.20;3.40;;;;;;;26.49;44.12;101667.94;4942687;29;20421;-69
2022/08/29 08:33:50;;;;;;;5.77;4.30;;;;;;;28.14;40.69;101659.56;4942850;29;20211;-70
2022/08/29 08:36:21;;;;;;;4.30;3.90;;;;;;;29.60;37.79;101657.34;4942597;29;20273;-70
2022/08/29 08:38:48;;;;;;;4.13;3.70;;;;;;;30.17;36.67;101662.19;4926032;29;20418;-70
2022/08/29 08:41:25;;;;;;;4.17;2.97;;;;;;;28.59;39.50;101659.13;4942044;29;20815;-70
2022/08/29 08:44:05;;;;;;;4.00;3.40;;;;;;;28.66;39.30;101663.25;4942310;29;20409;-73
2022/08/29 08:46:37;;;;;;;5.40;4.77;;;;;;;28.18;40.08;101665.66;4942381;29;20417;-74
2022/08/29 08:49:07;;;;;;;3.50;2.80;;;;;;;26.85;42.85;101678.00;4942430;29;20418;-71
2022/08/29 08:51:34;;;;;;;3.40;2.53;;;;;;;25.46;45.69;101669.41;4925684;29;20440;-74
2022/08/29 08:54:01;;;;;;;4.30;3.73;;;;;;;27.42;41.78;101671.06;4925629;29;20542;-70
2022/08/29 08:56:30;;;;;;;3.57;3.27;;;;;;;27.65;41.20;101678.88;4925835;29;20421;-71
2022/08/29 08:59:05;;;;;;;4.07;2.30;;;;;;;27.96;40.46;101668.50;4942967;29;20406;-70
2022/08/29 09:01:44;;;;;;;4.57;2.77;;;;;;;28.05;40.71;101668.94;4941022;29;20436;-70
2022/08/29 09:04:15;;;;;;;3.93;3.27;;;;;;;26.19;43.71;101670.09;4941979;29;20429;-70
2022/08/29 09:07:02;;;;;;;3.23;2.50;;;;;;;25.94;44.15;101676.41;4942003;29;20821;-71
2022/08/29 09:09:40;;;;;;;5.33;2.53;;;;;;;24.95;46.28;101680.13;4942025;29;20498;-71
2022/08/29 09:12:26;;;;;;;8.63;7.83;;;;;;;25.40;46.02;101681.19;4925553;29;20733;-69
2022/08/29 09:15:03;;;;;;;4.60;3.10;;;;;;;25.10;46.63;101689.38;4941826;29;20556;-70
2022/08/29 09:17:40;;;;;;;3.60;2.80;;;;;;;26.17;44.97;101686.19;4941918;29;20447;-70
2022/08/29 09:20:12;;;;;;;3.67;2.77;;;;;;;25.68;45.53;101690.78;4925723;29;20424;-69
2022/08/29 09:22:39;;;;;;;4.70;3.17;;;;;;;25.89;44.99;101683.75;4925175;29;20440;-70
2022/08/29 09:25:07;;;;;;;4.03;3.30;;;;;;;25.19;46.83;101682.81;4925288;29;20483;-68
2022/08/29 09:27:35;;;;;;;6.10;3.30;;;;;;;24.91;47.51;101683.81;4925247;29;20718;-68
2022/08/29 09:30:10;;;;;;;3.03;2.73;;;;;;;26.03;45.09;101683.22;4941554;29;20429;-68
2022/08/29 09:32:56;;;;;;;5.80;5.20;;;;;;;25.97;45.15;101683.44;4940563;29;20508;-69
2022/08/29 09:35:48;;;;;;;3.53;3.00;;;;;;;25.69;46.20;101689.88;4941732;29;20427;-70
2022/08/29 09:38:16;;;;;;;5.03;2.73;;;;;;;25.67;45.85;101686.41;4941099;29;20426;-71
2022/08/29 09:40:47;;;;;;;8.23;3.20;;;;;;;26.17;45.14;101688.88;4941659;29;20862;-70
2022/08/29 09:43:38;;;;;;;5.27;3.00;;;;;;;25.22;46.62;101682.69;4924732;29;20452;-72
2022/08/29 09:46:22;;;;;;;7.13;3.30;;;;;;;25.14;46.89;101684.75;4927878;29;20422;-70
2022/08/29 09:48:54;;;;;;;5.20;3.60;;;;;;;24.96;47.41;101680.97;4941245;29;20742;-69
2022/08/29 09:51:31;;;;;;;4.00;3.53;;;;;;;24.65;48.61;101688.28;4940647;29;20512;-70
2022/08/29 09:54:21;;;;;;;7.90;3.13;;;;;;;24.85;48.05;101690.22;4940983;29;20874;-70
2022/08/29 09:56:54;;;;;;;4.90;3.07;;;;;;;25.71;46.28;101696.03;4941237;29;20676;-70
2022/08/29 09:59:36;;;;;;;4.20;3.80;;;;;;;25.45;46.18;101694.34;4940459;29;20422;-69
2022/08/29 10:02:20;;;;;;;3.40;3.10;;;;;;;24.83;47.58;101697.41;4940427;29;20421;-70
2022/08/29 10:04:51;;;;;;;3.50;2.90;;;;;;;24.58;48.14;101693.81;4940925;29;20429;-70
2022/08/29 10:07:25;;;;;;;3.60;3.00;;;;;;;25.03;47.98;101701.16;4941208;29;20846;-69
2022/08/29 10:10:04;;;;;;;4.07;3.20;;;;;;;24.82;47.75;101698.34;4940923;29;20449;-68
2022/08/29 10:12:39;;;;;;;7.87;3.20;;;;;;;24.58;48.69;101699.16;4940522;29;20421;-70
2022/08/29 10:15:09;;;;;;;5.87;3.20;;;;;;;24.21;49.48;101694.13;4940913;29;20468;-69
2022/08/29 10:20:34;;;;;;;3.73;2.97;;;;;;;25.17;47.43;101701.53;4940469;29;20473;-70
2022/08/29 10:23:06;;;;;;;4.50;2.80;;;;;;;25.75;46.43;101699.44;4940048;29;20853;-70
2022/08/29 10:25:39;;;;;;;2.70;2.33;;;;;;;25.46;45.84;101696.09;4940037;29;20769;-70
2022/08/29 10:28:19;;;;;;;5.30;2.90;;;;;;;26.42;44.62;101697.69;4940716;29;20437;-72
2022/08/29 10:31:40;;;;;;;3.80;3.10;;;;;;;25.34;46.95;101705.41;4940786;29;20492;-70
2022/08/29 10:34:16;;;;;;;4.27;3.17;;;;;;;25.34;46.69;101708.09;4882415;29;20571;-70
2022/08/29 10:36:46;;;;;;;3.93;3.20;;;;;;;24.97;47.76;101709.41;4940892;29;20415;-73
2022/08/29 10:39:16;;;;;;;3.43;2.80;;;;;;;25.36;46.00;101712.44;4940051;29;20926;-71
2022/08/29 10:41:59;;;;;;;6.37;3.50;;;;;;;25.87;44.37;101704.28;4940484;29;20458;-71
2022/08/29 10:44:35;;;;;;;5.13;2.90;;;;;;;25.15;46.01;101708.72;4924077;29;20485;-73
2022/08/29 10:47:20;;;;;;;3.57;3.13;;;;;;;25.56;45.45;101710.84;4940585;29;20426;-72
2022/08/29 10:49:56;;;;;;;4.27;3.07;;;;;;;24.65;46.95;101714.03;4940495;29;20417;-72
2022/08/29 10:52:30;;;;;;;5.97;2.90;;;;;;;24.80;46.30;101716.19;4940441;29;20432;-74
2022/08/29 10:55:07;;;;;;;3.33;2.60;;;;;;;24.68;46.40;101717.50;4939691;29;20461;-72
2022/08/29 10:57:48;;;;;;;4.17;2.63;;;;;;;24.64;47.32;101710.53;4940409;29;20425;-73
2022/08/29 11:00:20;;;;;;;4.00;2.70;;;;;;;24.61;47.38;101715.91;4940533;29;20457;-72
2022/08/29 11:03:12;;;;;;;3.53;2.80;;;;;;;24.06;48.36;101710.59;4940279;29;20425;-69
2022/08/29 11:05:51;;;;;;;3.43;2.97;;;;;;;24.37;48.18;101714.94;4939801;29;20719;-71
2022/08/29 11:08:23;;;;;;;3.47;2.97;;;;;;;25.13;46.91;101710.59;4923757;29;20448;-71
2022/08/29 11:10:51;;;;;;;3.10;2.80;;;;;;;25.25;46.67;101713.72;4940369;29;20729;-71
2022/08/29 11:13:27;;;;;;;3.77;2.87;;;;;;;24.96;47.44;101715.66;4939024;29;20469;-72
2022/08/29 11:15:56;;;;;;;3.50;2.77;;;;;;;24.45;48.82;101718.22;4940198;29;20729;-72
2022/08/29 11:18:24;;;;;;;7.30;2.70;;;;;;;24.74;47.99;101718.22;4940176;29;20476;-71
2022/08/29 11:20:54;;;;;;;2.83;2.53;;;;;;;24.89;47.83;101717.66;4940113;29;20409;-70
2022/08/29 11:23:32;;;;;;;4.30;2.70;;;;;;;24.45;48.49;101731.56;4940053;29;20461;-70
2022/08/29 11:26:02;;;;;;;4.23;2.97;;;;;;;24.77;47.70;101723.44;4926786;29;20424;-70
2022/08/29 11:28:40;;;;;;;3.57;2.80;;;;;;;24.16;49.26;101724.50;4927403;29;20429;-70
2022/08/29 11:31:28;;;;;;;5.50;3.47;;;;;;;24.53;48.38;101715.28;4927589;29;20863;-70